Time;durP1;ratioP1;P1;durP2;ratioP2;P2;SDS_P1;SDS_P2;PMS_P1;PMS_P2;Temp;Humidity;BMP_temperature;BMP_pressure;BME280_temperature;BME280_humidity;BME280_pressure;Samples;Min_cycle;Max_cycle;Signal;HPM_P1;HPM_P2
2022/04/30 00:00:58;;;;;;;17.27;8.32;;;22.90;40.20;;;;;;5005382;28;20068;-43
2022/04/30 00:03:28;;;;;;;16.35;8.57;;;22.90;40.30;;;;;;5005821;28;20092;-43
2022/04/30 00:05:54;;;;;;;20.40;9.80;;;22.90;40.30;;;;;;5005472;28;20069;-43
2022/04/30 00:08:20;;;;;;;21.30;10.75;;;22.90;40.30;;;;;;5005832;28;20085;-42
2022/04/30 00:10:48;;;;;;;23.00;10.50;;;22.90;40.30;;;;;;5005169;28;20117;-43
2022/04/30 00:13:14;;;;;;;24.98;11.18;;;22.80;40.20;;;;;;5005019;28;20029;-43
2022/04/30 00:15:40;;;;;;;21.95;11.15;;;22.90;40.30;;;;;;5005669;28;20246;-42
2022/04/30 00:18:06;;;;;;;21.98;10.32;;;22.80;40.20;;;;;;5006352;28;20026;-42
2022/04/30 00:20:32;;;;;;;23.45;10.57;;;22.80;40.20;;;;;;5005450;28;20065;-41
2022/04/30 00:22:58;;;;;;;21.23;10.50;;;22.80;40.20;;;;;;5005387;28;20034;-43
2022/04/30 00:25:24;;;;;;;23.38;11.40;;;22.80;40.20;;;;;;5005902;28;20042;-42
2022/04/30 00:27:50;;;;;;;21.48;10.20;;;22.80;40.20;;;;;;5004302;28;20421;-43
2022/04/30 00:30:16;;;;;;;20.48;10.57;;;22.80;40.20;;;;;;5005462;28;20037;-42
2022/04/30 00:32:42;;;;;;;20.02;9.75;;;22.80;40.20;;;;;;5005317;28;20022;-43
2022/04/30 00:35:08;;;;;;;23.08;10.20;;;22.80;40.20;;;;;;5005508;28;20030;-43
2022/04/30 00:37:34;;;;;;;24.30;11.32;;;22.80;40.20;;;;;;5005635;28;20438;-42
2022/04/30 00:40:02;;;;;;;19.77;9.40;;;22.80;40.20;;;;;;5005524;28;20110;-43
2022/04/30 00:42:28;;;;;;;22.45;10.85;;;22.80;40.20;;;;;;5005151;28;20058;-42
2022/04/30 00:44:54;;;;;;;22.40;10.70;;;22.80;40.20;;;;;;5005429;28;20141;-43
2022/04/30 00:47:20;;;;;;;23.25;10.65;;;22.80;40.20;;;;;;5005436;28;20149;-43
2022/04/30 00:49:46;;;;;;;21.05;9.75;;;22.80;40.20;;;;;;5005372;28;20026;-43
2022/04/30 00:52:17;;;;;;;20.52;9.60;;;22.80;40.20;;;;;;5005248;28;20029;-42
2022/04/30 00:54:47;;;;;;;22.13;10.15;;;22.80;40.20;;;;;;5004154;28;20030;-43
2022/04/30 00:57:17;;;;;;;23.63;10.13;;;22.80;40.30;;;;;;5005219;28;20034;-43
2022/04/30 00:59:44;;;;;;;22.00;10.00;;;22.80;40.20;;;;;;5005301;28;20482;-43
2022/04/30 01:02:11;;;;;;;22.48;10.68;;;22.70;40.30;;;;;;5004820;28;20041;-43
2022/04/30 01:04:37;;;;;;;20.40;9.27;;;22.80;40.30;;;;;;5005209;28;20081;-42
2022/04/30 01:07:07;;;;;;;19.38;9.38;;;22.80;40.20;;;;;;5005043;28;20502;-43
2022/04/30 01:09:35;;;;;;;19.50;8.93;;;22.70;40.20;;;;;;5004812;28;20030;-43
2022/04/30 01:12:08;;;;;;;23.08;10.93;;;22.70;40.20;;;;;;5004830;28;20092;-43
2022/04/30 01:14:34;;;;;;;19.48;9.95;;;22.70;40.20;;;;;;5005147;28;20030;-43
2022/04/30 01:17:05;;;;;;;18.15;8.48;;;22.70;40.20;;;;;;5004345;28;20460;-44
2022/04/30 01:19:33;;;;;;;18.45;8.73;;;22.70;40.20;;;;;;5003321;28;20113;-42
2022/04/30 01:22:01;;;;;;;20.83;9.77;;;22.70;40.20;;;;;;5002731;28;20033;-43
2022/04/30 01:24:30;;;;;;;20.27;9.00;;;22.70;40.30;;;;;;5007754;28;20117;-42
2022/04/30 01:26:58;;;;;;;17.42;8.50;;;22.70;40.20;;;;;;5008437;28;20026;-42
2022/04/30 01:29:25;;;;;;;17.15;9.60;;;22.70;40.20;;;;;;5008553;28;20022;-43
2022/04/30 01:37:24;;;;;;;17.50;8.25;;;22.70;40.30;;;;;;5008521;28;20100;-43
2022/04/30 01:39:55;;;;;;;16.33;7.95;;;22.70;40.30;;;;;;5007507;28;20192;-44
2022/04/30 01:42:21;;;;;;;17.40;8.15;;;22.70;40.30;;;;;;5007899;28;20108;-43
2022/04/30 01:44:47;;;;;;;18.30;8.57;;;22.70;40.30;;;;;;5008380;28;20069;-43
2022/04/30 01:47:17;;;;;;;15.90;7.55;;;22.70;40.30;;;;;;5008322;28;20038;-42
2022/04/30 01:49:44;;;;;;;16.23;7.25;;;22.70;40.30;;;;;;5006748;28;20025;-42
2022/04/30 01:52:13;;;;;;;13.32;6.95;;;22.70;40.30;;;;;;5007942;28;20321;-43
2022/04/30 01:54:39;;;;;;;17.50;8.32;;;22.70;40.30;;;;;;5008039;28;20756;-43
2022/04/30 01:57:05;;;;;;;16.02;7.55;;;22.60;40.10;;;;;;5008148;28;20037;-42
2022/04/30 01:59:31;;;;;;;14.52;6.80;;;22.60;40.10;;;;;;5007663;28;20111;-42
2022/04/30 02:01:59;;;;;;;13.98;7.20;;;22.60;40.10;;;;;;5006514;28;20501;-42
2022/04/30 02:04:26;;;;;;;12.88;6.47;;;22.60;40.10;;;;;;5008181;28;20038;-43
2022/04/30 02:06:54;;;;;;;13.05;6.50;;;22.60;40.10;;;;;;5007896;28;20038;-43
2022/04/30 02:09:21;;;;;;;14.38;6.80;;;22.60;40.10;;;;;;5007866;28;20089;-43
2022/04/30 02:11:48;;;;;;;16.23;7.65;;;22.60;40.10;;;;;;5007546;28;20467;-42
2022/04/30 02:14:17;;;;;;;13.60;6.78;;;22.60;40.10;;;;;;5007860;28;20030;-43
2022/04/30 02:16:45;;;;;;;14.27;6.40;;;22.60;40.20;;;;;;5006293;28;20041;-42
2022/04/30 02:19:11;;;;;;;13.77;6.40;;;22.60;40.20;;;;;;5007677;28;20133;-43
2022/04/30 02:21:37;;;;;;;13.57;6.88;;;22.60;40.90;;;;;;5007384;28;20085;-43
2022/04/30 02:24:03;;;;;;;12.93;6.78;;;22.60;40.20;;;;;;5007646;28;20096;-43
2022/04/30 02:26:30;;;;;;;13.52;6.70;;;22.60;40.20;;;;;;5007007;28;20104;-42
2022/04/30 02:28:57;;;;;;;10.25;5.15;;;22.60;40.20;;;;;;5007418;28;20027;-43
2022/04/30 02:31:25;;;;;;;12.32;5.55;;;22.60;40.20;;;;;;5007013;28;20033;-42
2022/04/30 02:33:54;;;;;;;10.30;5.30;;;22.60;40.20;;;;;;5006359;28;20661;-43
2022/04/30 02:36:25;;;;;;;12.48;6.43;;;22.60;40.20;;;;;;5007331;28;20497;-43
2022/04/30 02:38:55;;;;;;;9.43;5.22;;;22.50;40.20;;;;;;5007697;28;20491;-42
2022/04/30 02:41:22;;;;;;;10.30;5.28;;;22.60;40.20;;;;;;5007136;28;20029;-43
2022/04/30 02:43:50;;;;;;;10.15;5.10;;;22.60;40.10;;;;;;5007506;28;20109;-43
2022/04/30 02:46:16;;;;;;;10.77;5.10;;;22.60;40.10;;;;;;5006998;28;20053;-42
2022/04/30 02:48:42;;;;;;;9.93;5.32;;;22.60;40.10;;;;;;5007126;28;20681;-42
2022/04/30 02:51:09;;;;;;;9.65;4.65;;;22.60;40.10;;;;;;5006619;28;20025;-43
2022/04/30 02:53:34;;;;;;;10.82;4.80;;;22.60;40.10;;;;;;5007175;28;20050;-43
2022/04/30 02:56:00;;;;;;;8.77;4.47;;;22.60;40.20;;;;;;5007025;28;20038;-43
2022/04/30 03:01:10;;;;;;;9.27;4.60;;;22.60;40.20;;;;;;5006714;28;20037;-43
2022/04/30 03:03:36;;;;;;;10.02;5.03;;;22.60;40.20;;;;;;5006709;28;20030;-43
2022/04/30 03:06:01;;;;;;;9.38;4.88;;;22.50;40.20;;;;;;5006712;28;20033;-42
2022/04/30 03:08:28;;;;;;;10.18;4.80;;;22.60;40.20;;;;;;5006763;28;20030;-42
2022/04/30 03:10:56;;;;;;;9.05;4.78;;;22.50;40.20;;;;;;5006311;28;20021;-43
2022/04/30 03:13:24;;;;;;;8.27;4.38;;;22.50;40.20;;;;;;5005783;28;20030;-43
2022/04/30 03:15:51;;;;;;;8.60;4.18;;;22.50;40.20;;;;;;5006607;28;20034;-43
2022/04/30 03:23:47;;;;;;;7.25;4.13;;;22.50;40.20;;;;;;5006484;28;20095;-42
2022/04/30 03:26:15;;;;;;;8.15;4.15;;;22.50;40.20;;;;;;5006311;28;20113;-43
2022/04/30 03:28:42;;;;;;;9.18;3.92;;;22.50;40.20;;;;;;5006550;28;20433;-43
2022/04/30 03:31:12;;;;;;;7.05;3.58;;;22.50;40.10;;;;;;5006011;28;20053;-43
2022/04/30 03:33:38;;;;;;;7.97;4.10;;;22.50;40.20;;;;;;5006179;28;20025;-43
2022/04/30 03:36:05;;;;;;;6.47;3.30;;;22.50;40.10;;;;;;5006005;28;20478;-43
2022/04/30 03:38:30;;;;;;;8.15;4.45;;;22.50;40.10;;;;;;5006204;28;20247;-43
2022/04/30 03:40:57;;;;;;;8.15;3.95;;;22.50;40.10;;;;;;5006002;28;20379;-42
2022/04/30 03:43:23;;;;;;;6.70;3.55;;;22.50;40.20;;;;;;5005918;28;20041;-43
2022/04/30 03:45:49;;;;;;;8.25;3.30;;;22.50;40.20;;;;;;5005221;28;20030;-42
2022/04/30 03:48:15;;;;;;;8.02;3.92;;;22.50;40.20;;;;;;5005919;28;20034;-43
2022/04/30 03:50:44;;;;;;;7.45;3.53;;;22.50;40.20;;;;;;5005616;28;20022;-43
2022/04/30 03:53:10;;;;;;;6.97;3.67;;;22.50;40.90;;;;;;5005527;28;20188;-43
2022/04/30 03:55:36;;;;;;;7.57;3.70;;;22.50;40.20;;;;;;5006081;28;20034;-42
2022/04/30 03:58:02;;;;;;;7.22;3.10;;;22.50;40.20;;;;;;5005284;28;20527;-43
2022/04/30 04:00:27;;;;;;;7.15;2.97;;;22.50;40.20;;;;;;5005954;28;20128;-43
2022/04/30 04:02:58;;;;;;;6.68;3.42;;;22.50;40.20;;;;;;5005497;28;20709;-43
2022/04/30 04:05:24;;;;;;;5.72;3.17;;;22.50;40.20;;;;;;5005751;28;20037;-43
2022/04/30 04:07:50;;;;;;;5.90;2.90;;;22.50;40.20;;;;;;5005814;28;20045;-43
2022/04/30 04:10:16;;;;;;;6.57;3.58;;;22.50;40.20;;;;;;5005701;28;20066;-43
2022/04/30 04:12:42;;;;;;;5.68;2.50;;;22.50;40.20;;;;;;5005757;28;20525;-43
2022/04/30 04:17:54;;;;;;;6.13;2.72;;;22.40;40.00;;;;;;5005790;28;20080;-43
2022/04/30 04:20:24;;;;;;;6.65;2.80;;;22.40;40.00;;;;;;5005682;28;20032;-43
2022/04/30 04:22:54;;;;;;;5.32;2.83;;;22.40;40.10;;;;;;5005266;28;20026;-43
2022/04/30 04:28:05;;;;;;;6.13;2.65;;;22.40;40.10;;;;;;5005452;28;20464;-42
2022/04/30 04:30:33;;;;;;;5.55;2.85;;;22.40;40.10;;;;;;5005252;28;20877;-43
2022/04/30 04:33:00;;;;;;;5.75;3.08;;;22.40;40.10;;;;;;5005416;28;20468;-43
2022/04/30 04:35:27;;;;;;;5.28;2.60;;;22.40;40.10;;;;;;5005616;28;20028;-43
2022/04/30 04:37:52;;;;;;;5.10;2.45;;;22.40;40.10;;;;;;5005423;28;20030;-43
2022/04/30 04:40:19;;;;;;;5.78;2.65;;;22.40;40.10;;;;;;5005189;28;20029;-43
2022/04/30 04:42:48;;;;;;;4.70;2.40;;;22.40;40.10;;;;;;5004927;28;20029;-42
2022/04/30 04:45:14;;;;;;;5.38;2.67;;;22.40;40.10;;;;;;5004704;28;20036;-43
2022/04/30 04:47:44;;;;;;;4.70;2.55;;;22.40;40.10;;;;;;5005329;28;20561;-42
2022/04/30 04:50:13;;;;;;;4.75;2.40;;;22.40;40.10;;;;;;5005473;28;20022;-43
2022/04/30 04:52:39;;;;;;;5.43;2.60;;;22.40;40.10;;;;;;5005021;28;20053;-43
2022/04/30 04:55:06;;;;;;;4.25;2.22;;;22.40;40.10;;;;;;5004531;28;20314;-43
2022/04/30 04:57:31;;;;;;;5.05;2.55;;;22.40;40.10;;;;;;5007724;28;20038;-42
2022/04/30 04:59:57;;;;;;;3.95;1.88;;;22.40;40.00;;;;;;5008796;28;20444;-43
2022/04/30 05:02:23;;;;;;;4.72;2.28;;;22.40;40.10;;;;;;5008841;28;20037;-43
2022/04/30 05:04:48;;;;;;;5.05;2.50;;;22.40;40.10;;;;;;5008782;28;20525;-43
2022/04/30 05:07:14;;;;;;;4.20;2.10;;;22.40;40.00;;;;;;5008763;28;20026;-42
2022/04/30 05:09:40;;;;;;;5.53;2.40;;;22.40;40.00;;;;;;5008651;28;20037;-43
2022/04/30 05:12:07;;;;;;;5.25;2.55;;;22.40;40.10;;;;;;5008475;28;20410;-43
2022/04/30 05:14:33;;;;;;;4.00;2.10;;;22.40;40.10;;;;;;5008146;28;20034;-43
2022/04/30 05:17:00;;;;;;;4.57;2.30;;;22.40;40.10;;;;;;5008708;28;20131;-43
2022/04/30 05:19:25;;;;;;;5.13;2.33;;;22.40;40.10;;;;;;5008596;28;20072;-43
2022/04/30 05:21:51;;;;;;;4.40;2.00;;;22.40;40.20;;;;;;5008220;28;20698;-42
2022/04/30 05:24:17;;;;;;;4.43;2.00;;;22.40;40.30;;;;;;5008342;28;20038;-42
2022/04/30 05:26:43;;;;;;;4.00;2.05;;;22.40;40.20;;;;;;5008609;28;20060;-42
2022/04/30 05:29:08;;;;;;;5.55;2.30;;;22.50;40.30;;;;;;5008746;28;20037;-43
2022/04/30 05:31:34;;;;;;;4.38;1.95;;;22.50;40.30;;;;;;5007712;28;20636;-42
2022/04/30 05:34:00;;;;;;;4.75;2.20;;;22.60;40.20;;;;;;5008339;28;20042;-43
2022/04/30 05:36:25;;;;;;;4.18;1.75;;;22.60;40.20;;;;;;5008161;28;20101;-43
2022/04/30 05:38:51;;;;;;;3.60;1.90;;;22.70;40.20;;;;;;5008401;28;20438;-42
2022/04/30 05:41:18;;;;;;;3.90;1.70;;;22.70;40.20;;;;;;5007772;28;20052;-42
2022/04/30 05:43:44;;;;;;;4.53;1.92;;;22.70;40.10;;;;;;5008303;28;20034;-43
2022/04/30 05:46:09;;;;;;;5.53;2.35;;;22.80;40.00;;;;;;5007646;28;20042;-43
2022/04/30 05:48:35;;;;;;;4.47;2.03;;;22.80;39.90;;;;;;5007937;28;20182;-42
2022/04/30 05:51:02;;;;;;;3.95;1.90;;;22.90;39.90;;;;;;5007656;28;20052;-43
2022/04/30 05:53:28;;;;;;;4.32;2.35;;;23.00;39.90;;;;;;5007812;28;20266;-42
2022/04/30 05:55:54;;;;;;;3.83;1.75;;;23.00;39.80;;;;;;5007769;28;20033;-43
2022/04/30 05:58:20;;;;;;;4.25;2.00;;;23.00;39.70;;;;;;5008081;28;20033;-43
2022/04/30 06:00:46;;;;;;;4.47;2.15;;;23.00;39.70;;;;;;5007513;28;20037;-43
2022/04/30 06:03:12;;;;;;;4.25;2.17;;;23.10;39.60;;;;;;5007377;28;20029;-43
2022/04/30 06:05:37;;;;;;;3.28;1.67;;;23.10;39.60;;;;;;5006827;28;20030;-42
2022/04/30 06:08:05;;;;;;;3.40;1.70;;;23.20;39.50;;;;;;5006512;28;20034;-43
2022/04/30 06:10:30;;;;;;;4.03;2.03;;;23.20;39.50;;;;;;5007469;28;20073;-43
2022/04/30 06:12:57;;;;;;;3.90;1.88;;;23.30;39.50;;;;;;5007326;28;20034;-43
2022/04/30 06:15:23;;;;;;;3.42;1.67;;;23.30;39.40;;;;;;5007564;28;20037;-43
2022/04/30 06:17:48;;;;;;;4.03;2.00;;;23.30;39.30;;;;;;5007526;28;20449;-43
2022/04/30 06:20:14;;;;;;;3.75;1.65;;;23.30;39.30;;;;;;5007429;28;20037;-42
2022/04/30 06:22:40;;;;;;;2.95;1.55;;;23.40;39.30;;;;;;5006827;28;20140;-43
2022/04/30 06:25:07;;;;;;;4.13;1.98;;;23.40;39.30;;;;;;5007180;28;20094;-42
2022/04/30 06:27:33;;;;;;;4.10;1.88;;;23.40;39.20;;;;;;5007046;28;20038;-43
2022/04/30 06:29:59;;;;;;;3.65;1.63;;;23.40;39.20;;;;;;5007369;28;20022;-43
2022/04/30 06:32:26;;;;;;;2.92;1.40;;;23.40;39.20;;;;;;5006915;28;20033;-43
2022/04/30 06:34:51;;;;;;;3.17;1.63;;;23.50;39.20;;;;;;5007003;28;20861;-43
2022/04/30 06:37:17;;;;;;;3.28;1.58;;;23.50;39.20;;;;;;5006865;28;20026;-42
2022/04/30 06:39:46;;;;;;;3.33;1.60;;;23.50;39.20;;;;;;5006736;28;20052;-43
2022/04/30 06:42:12;;;;;;;3.28;1.58;;;23.50;39.20;;;;;;5007072;28;20521;-42
2022/04/30 06:44:37;;;;;;;3.15;1.42;;;23.50;39.20;;;;;;5006843;28;20145;-42
2022/04/30 06:47:04;;;;;;;3.25;1.73;;;23.50;39.10;;;;;;5006570;28;20036;-43
2022/04/30 06:49:29;;;;;;;3.53;1.65;;;23.50;39.20;;;;;;5006847;28;20441;-43
2022/04/30 06:51:55;;;;;;;3.08;1.60;;;23.50;39.10;;;;;;5006347;28;20034;-43
2022/04/30 06:57:10;;;;;;;3.50;1.30;;;23.50;39.10;;;;;;5006897;28;20252;-43
2022/04/30 06:59:39;;;;;;;5.25;2.33;;;23.50;39.00;;;;;;5007043;28;20379;-43
2022/04/30 07:02:13;;;;;;;3.65;1.40;;;23.50;39.00;;;;;;5006072;28;20025;-43
2022/04/30 07:04:41;;;;;;;3.60;1.60;;;23.50;39.10;;;;;;5006769;28;20041;-42
2022/04/30 07:07:06;;;;;;;3.20;1.55;;;23.50;39.10;;;;;;5006596;28;20064;-42
2022/04/30 07:09:32;;;;;;;3.33;1.60;;;23.50;39.10;;;;;;5006816;28;20022;-42
2022/04/30 07:12:04;;;;;;;2.92;1.58;;;23.50;39.20;;;;;;5006080;28;20085;-43
2022/04/30 07:14:32;;;;;;;2.67;1.30;;;23.50;39.10;;;;;;5005844;28;20235;-42
2022/04/30 07:16:58;;;;;;;3.78;1.27;;;23.50;39.20;;;;;;5006646;28;20025;-43
2022/04/30 07:19:23;;;;;;;4.18;1.67;;;23.50;39.20;;;;;;5006264;28;20405;-43
2022/04/30 07:21:49;;;;;;;2.88;1.60;;;23.50;39.20;;;;;;5006036;28;20123;-43
2022/04/30 07:24:15;;;;;;;2.97;1.58;;;23.50;39.10;;;;;;5004812;28;20417;-43
2022/04/30 07:26:40;;;;;;;3.42;1.60;;;23.50;39.20;;;;;;5006053;28;20357;-43
2022/04/30 07:29:06;;;;;;;3.30;1.70;;;23.50;39.20;;;;;;5006523;28;20049;-43
2022/04/30 07:31:32;;;;;;;2.80;1.25;;;23.50;39.20;;;;;;5005464;28;20026;-43
2022/04/30 07:33:57;;;;;;;2.20;1.27;;;23.50;39.20;;;;;;5005557;28;20032;-42
2022/04/30 07:36:23;;;;;;;2.72;1.50;;;23.50;39.20;;;;;;5005803;28;20048;-43
2022/04/30 07:38:49;;;;;;;3.05;1.52;;;23.40;39.10;;;;;;5005733;28;20229;-42
2022/04/30 07:41:15;;;;;;;3.15;1.50;;;23.40;39.20;;;;;;5005354;28;20036;-42
2022/04/30 07:43:41;;;;;;;2.85;1.50;;;23.50;39.30;;;;;;5003758;28;20478;-43
2022/04/30 07:46:07;;;;;;;3.22;1.70;;;23.50;39.40;;;;;;5004779;28;20030;-43
2022/04/30 07:48:32;;;;;;;3.65;1.40;;;23.40;39.40;;;;;;5004874;28;20037;-43
2022/04/30 07:50:59;;;;;;;3.08;1.50;;;23.40;39.50;;;;;;5004399;28;20023;-43
2022/04/30 07:53:25;;;;;;;3.50;1.40;;;23.40;39.50;;;;;;5005525;28;20026;-43
2022/04/30 07:55:53;;;;;;;2.65;1.52;;;23.50;39.60;;;;;;5005377;28;20026;-42
2022/04/30 07:58:19;;;;;;;2.70;1.38;;;23.40;39.50;;;;;;5004812;28;20079;-43
2022/04/30 08:00:44;;;;;;;3.55;1.42;;;23.40;39.50;;;;;;5005651;28;20022;-43
2022/04/30 08:03:10;;;;;;;3.55;1.60;;;23.40;39.50;;;;;;5005313;28;20536;-43
2022/04/30 08:05:36;;;;;;;2.47;1.17;;;23.40;39.60;;;;;;5005522;28;20034;-42
2022/04/30 08:08:01;;;;;;;3.30;1.60;;;23.40;39.60;;;;;;5005408;28;20034;-43
2022/04/30 08:10:27;;;;;;;3.00;1.42;;;23.40;39.50;;;;;;5005391;28;20018;-43
2022/04/30 08:12:54;;;;;;;3.72;1.80;;;23.40;39.50;;;;;;5005356;28;20026;-43
2022/04/30 08:15:24;;;;;;;2.92;1.50;;;23.40;39.50;;;;;;5005331;28;20120;-43
2022/04/30 08:17:54;;;;;;;3.08;1.58;;;23.40;39.50;;;;;;5005229;28;20048;-43
2022/04/30 08:20:20;;;;;;;2.40;1.35;;;23.40;39.50;;;;;;5005165;28;20446;-43
2022/04/30 08:22:47;;;;;;;2.72;1.40;;;23.40;39.50;;;;;;5005338;28;20053;-43
2022/04/30 08:25:13;;;;;;;2.95;1.55;;;23.40;39.50;;;;;;5005282;28;20034;-43
2022/04/30 08:27:39;;;;;;;2.50;1.27;;;23.30;39.50;;;;;;5005158;28;20724;-43
2022/04/30 08:30:06;;;;;;;3.03;1.38;;;23.40;39.50;;;;;;5004471;28;20030;-43
2022/04/30 08:32:31;;;;;;;2.95;1.55;;;23.30;39.50;;;;;;5009687;28;20044;-43
2022/04/30 08:35:01;;;;;;;2.60;1.55;;;23.40;39.50;;;;;;5011734;28;20021;-42
2022/04/30 08:37:27;;;;;;;3.65;1.40;;;23.30;39.50;;;;;;5011835;28;20454;-42
2022/04/30 08:39:52;;;;;;;3.22;1.52;;;23.30;39.40;;;;;;5011602;28;20036;-43
2022/04/30 08:42:23;;;;;;;2.70;1.38;;;23.30;39.50;;;;;;5011889;28;20018;-43
2022/04/30 08:44:49;;;;;;;2.88;1.23;;;23.30;39.50;;;;;;5011596;28;20490;-43
2022/04/30 08:47:15;;;;;;;2.10;1.27;;;23.30;39.50;;;;;;5011388;28;20036;-43
2022/04/30 08:49:42;;;;;;;2.30;1.10;;;23.30;40.10;;;;;;5011385;28;20232;-43
2022/04/30 08:52:15;;;;;;;2.75;1.27;;;23.30;39.50;;;;;;5011484;28;20373;-42
2022/04/30 08:54:41;;;;;;;2.40;1.63;;;23.30;39.50;;;;;;5011356;28;20022;-43
2022/04/30 08:57:07;;;;;;;2.45;1.25;;;23.30;39.50;;;;;;5010768;28;20520;-43
2022/04/30 08:59:33;;;;;;;3.60;1.48;;;23.30;39.50;;;;;;5011399;28;20689;-43
2022/04/30 09:02:00;;;;;;;2.17;1.23;;;23.30;39.50;;;;;;5010905;28;20048;-43
2022/04/30 09:04:26;;;;;;;2.90;1.42;;;23.30;39.50;;;;;;5011422;28;20647;-43
2022/04/30 09:06:55;;;;;;;2.00;1.13;;;23.30;39.60;;;;;;5011024;28;20133;-43
2022/04/30 09:09:28;;;;;;;2.38;1.15;;;23.30;39.60;;;;;;5011296;28;20017;-42
2022/04/30 09:12:05;;;;;;;2.65;1.20;;;23.30;39.50;;;;;;5010905;28;20255;-43
2022/04/30 09:14:30;;;;;;;3.17;1.70;;;23.30;39.60;;;;;;5011543;28;20382;-43
2022/04/30 09:17:11;;;;;;;2.47;1.20;;;23.30;39.50;;;;;;5010599;28;20033;-43
2022/04/30 09:19:50;;;;;;;2.53;1.55;;;23.30;39.50;;;;;;5011363;28;20112;-43
2022/04/30 09:22:16;;;;;;;2.60;1.20;;;23.30;39.50;;;;;;5010665;28;20030;-43
2022/04/30 09:24:48;;;;;;;2.50;1.40;;;23.20;39.50;;;;;;5010982;28;20029;-42
2022/04/30 09:27:17;;;;;;;3.22;1.58;;;23.30;39.50;;;;;;5011002;28;20560;-43
2022/04/30 09:29:44;;;;;;;2.00;1.15;;;23.30;39.50;;;;;;5011164;28;20112;-43
2022/04/30 09:32:23;;;;;;;3.05;1.40;;;23.20;39.50;;;;;;5010682;28;20052;-43
2022/04/30 09:37:43;;;;;;;2.50;1.40;;;23.30;39.50;;;;;;5011420;28;20032;-43
2022/04/30 09:40:15;;;;;;;2.63;1.35;;;23.30;39.50;;;;;;5011116;28;20026;-43
2022/04/30 09:42:42;;;;;;;2.55;1.35;;;23.40;39.50;;;;;;5009184;28;20692;-43
2022/04/30 09:45:20;;;;;;;2.92;1.40;;;23.40;39.50;;;;;;5007452;28;20033;-43
2022/04/30 09:47:47;;;;;;;3.45;1.40;;;23.40;39.50;;;;;;5007760;28;20575;-42
2022/04/30 09:55:44;;;;;;;2.15;1.13;;;23.40;39.40;;;;;;5007977;28;20198;-43
2022/04/30 09:58:15;;;;;;;1.88;1.08;;;23.40;39.40;;;;;;5007242;28;20034;-43
2022/04/30 10:00:41;;;;;;;4.10;1.63;;;23.50;39.50;;;;;;5007675;28;20022;-43
2022/04/30 10:03:08;;;;;;;2.78;1.20;;;23.50;39.40;;;;;;5007517;28;20094;-43
2022/04/30 10:05:38;;;;;;;2.22;1.30;;;23.50;39.40;;;;;;5007819;28;20026;-43
2022/04/30 10:08:04;;;;;;;3.00;1.48;;;23.50;39.30;;;;;;5007526;28;20468;-43
2022/04/30 10:10:47;;;;;;;2.17;1.02;;;23.50;39.30;;;;;;5007000;28;20112;-42
2022/04/30 10:13:27;;;;;;;2.35;1.30;;;23.50;39.30;;;;;;5006858;28;20032;-43
2022/04/30 10:15:54;;;;;;;2.95;1.60;;;23.50;39.30;;;;;;5007506;28;20088;-43
2022/04/30 10:18:24;;;;;;;2.22;1.30;;;23.50;39.20;;;;;;5007165;28;20034;-43
2022/04/30 10:20:59;;;;;;;2.30;1.08;;;23.50;39.30;;;;;;5006932;28;20033;-43
2022/04/30 10:23:26;;;;;;;2.53;1.23;;;23.50;40.00;;;;;;5007337;28;20104;-42
2022/04/30 10:25:54;;;;;;;2.40;1.27;;;23.50;39.30;;;;;;5007247;28;20037;-43
2022/04/30 10:28:21;;;;;;;2.00;1.10;;;23.50;39.30;;;;;;5007196;28;20042;-42
2022/04/30 10:31:02;;;;;;;2.05;1.25;;;23.50;39.40;;;;;;5006663;28;20513;-43
2022/04/30 10:33:28;;;;;;;2.45;1.27;;;23.50;39.40;;;;;;5006912;28;20095;-43
2022/04/30 10:36:32;;;;;;;2.30;1.20;;;23.50;39.40;;;;;;5007313;28;20372;-43
2022/04/30 10:39:00;;;;;;;3.17;1.60;;;23.50;39.40;;;;;;4996982;28;20034;-43
2022/04/30 10:41:26;;;;;;;2.55;1.25;;;23.50;39.40;;;;;;5006878;28;20054;-42
2022/04/30 10:44:03;;;;;;;2.33;1.30;;;23.50;39.40;;;;;;5006744;28;20127;-43
2022/04/30 10:46:37;;;;;;;2.08;1.30;;;23.50;39.40;;;;;;5006370;28;20034;-43
2022/04/30 10:49:05;;;;;;;2.80;1.50;;;23.50;39.40;;;;;;5006733;28;20468;-43
2022/04/30 10:51:42;;;;;;;2.60;1.30;;;23.50;39.40;;;;;;5006608;28;20030;-43
2022/04/30 10:54:18;;;;;;;1.98;1.05;;;23.50;39.40;;;;;;5005533;28;20693;-43
2022/04/30 10:56:45;;;;;;;2.92;1.52;;;23.50;39.40;;;;;;5006639;28;20038;-43
2022/04/30 10:59:21;;;;;;;2.05;1.20;;;23.50;39.30;;;;;;5006789;28;20400;-43
2022/04/30 11:01:50;;;;;;;2.20;1.20;;;23.50;39.40;;;;;;5006243;28;20095;-43
2022/04/30 11:04:19;;;;;;;2.38;1.20;;;23.50;39.40;;;;;;5006680;28;20164;-43
2022/04/30 11:06:52;;;;;;;2.53;1.45;;;23.50;39.40;;;;;;5006333;28;20045;-43
2022/04/30 11:09:19;;;;;;;2.53;1.30;;;23.50;39.40;;;;;;5006647;28;20077;-43
2022/04/30 11:11:49;;;;;;;2.10;1.13;;;23.50;39.40;;;;;;5006178;28;20212;-43
2022/04/30 11:14:19;;;;;;;2.30;1.20;;;23.50;39.40;;;;;;5006389;28;20026;-43
2022/04/30 11:16:49;;;;;;;2.15;1.17;;;23.50;39.40;;;;;;5005948;28;20636;-42
2022/04/30 11:19:20;;;;;;;1.77;1.00;;;23.50;39.40;;;;;;5006109;28;20026;-43
2022/04/30 11:21:51;;;;;;;2.50;1.38;;;23.50;39.50;;;;;;5005865;28;20418;-43
2022/04/30 11:24:24;;;;;;;2.40;1.13;;;23.50;39.40;;;;;;5006073;28;20034;-43
2022/04/30 11:26:54;;;;;;;2.38;1.30;;;23.50;39.50;;;;;;5005915;28;20034;-43
2022/04/30 11:29:21;;;;;;;2.15;1.20;;;23.50;39.50;;;;;;5006054;28;20235;-43
2022/04/30 11:31:51;;;;;;;2.17;1.15;;;23.50;39.50;;;;;;5005237;28;20061;-42
2022/04/30 11:34:18;;;;;;;2.08;1.17;;;23.50;39.60;;;;;;5006291;28;20034;-43
2022/04/30 11:36:55;;;;;;;2.63;1.30;;;23.50;39.50;;;;;;5005911;28;20025;-43
2022/04/30 11:39:21;;;;;;;1.88;1.10;;;23.50;39.60;;;;;;5004882;28;20536;-43
2022/04/30 11:41:52;;;;;;;2.50;1.00;;;23.50;39.50;;;;;;5005976;28;20026;-42
2022/04/30 11:44:25;;;;;;;2.28;1.33;;;23.60;39.60;;;;;;5005739;28;20397;-43
2022/04/30 11:46:52;;;;;;;2.35;1.10;;;23.60;39.60;;;;;;5005673;28;20517;-42
2022/04/30 11:49:23;;;;;;;2.33;1.20;;;23.50;39.60;;;;;;5006197;28;20034;-43
2022/04/30 11:51:56;;;;;;;1.90;1.10;;;23.60;39.60;;;;;;5005744;28;20029;-43
2022/04/30 11:54:24;;;;;;;2.00;1.13;;;23.60;39.40;;;;;;4986369;28;20026;-43
2022/04/30 11:56:51;;;;;;;2.15;1.25;;;23.60;39.40;;;;;;4985686;28;20521;-43
2022/04/30 11:59:31;;;;;;;1.98;1.08;;;23.60;39.50;;;;;;5004989;28;20037;-44
2022/04/30 12:02:01;;;;;;;2.33;1.20;;;23.60;40.20;;;;;;5004392;28;20487;-43
2022/04/30 12:04:32;;;;;;;1.75;0.90;;;23.60;39.50;;;;;;5005564;28;20030;-43
2022/04/30 12:07:00;;;;;;;1.95;1.10;;;23.60;39.50;;;;;;5004498;28;20093;-43
2022/04/30 12:09:32;;;;;;;2.00;1.17;;;23.60;39.50;;;;;;5005497;28;20026;-43
2022/04/30 12:11:59;;;;;;;1.60;0.93;;;23.70;39.60;;;;;;5005206;28;20030;-43
2022/04/30 12:14:25;;;;;;;1.85;1.10;;;23.70;39.60;;;;;;5005310;28;20792;-42
2022/04/30 12:16:52;;;;;;;1.90;0.95;;;23.70;39.50;;;;;;5005261;28;20105;-43
2022/04/30 12:25:15;;;;;;;2.80;1.38;;;23.70;39.50;;;;;;5005094;28;20037;-42
2022/04/30 12:28:04;;;;;;;2.15;1.13;;;23.80;39.40;;;;;;5005195;28;20037;-43
2022/04/30 12:30:32;;;;;;;1.90;0.82;;;23.80;39.40;;;;;;5005291;28;20172;-43
2022/04/30 12:33:04;;;;;;;2.05;1.00;;;23.80;39.30;;;;;;5004895;28;20034;-43
2022/04/30 12:35:31;;;;;;;2.20;1.10;;;23.80;39.30;;;;;;5005317;28;20030;-43
2022/04/30 12:38:04;;;;;;;1.98;1.00;;;23.80;39.30;;;;;;5005538;28;20502;-43
2022/04/30 12:40:31;;;;;;;1.98;1.10;;;23.80;39.20;;;;;;5005310;28;20323;-43
2022/04/30 12:42:56;;;;;;;2.22;1.30;;;23.90;39.20;;;;;;5004959;28;20094;-43
2022/04/30 12:45:22;;;;;;;1.67;1.00;;;23.90;39.20;;;;;;5003988;28;20109;-42
2022/04/30 12:47:51;;;;;;;1.58;0.90;;;23.90;39.20;;;;;;5005128;28;20045;-43
2022/04/30 12:50:17;;;;;;;2.67;1.25;;;23.90;39.20;;;;;;5005362;28;20034;-43
2022/04/30 12:52:43;;;;;;;1.75;1.08;;;23.90;39.10;;;;;;5005256;28;20029;-43
2022/04/30 12:55:11;;;;;;;2.20;1.20;;;24.00;39.10;;;;;;5004885;28;20022;-43
2022/04/30 12:57:38;;;;;;;2.08;1.13;;;24.00;39.00;;;;;;5004958;28;20128;-43
2022/04/30 13:00:05;;;;;;;2.17;1.20;;;24.00;39.00;;;;;;5004418;28;20386;-43
2022/04/30 13:02:31;;;;;;;2.75;1.45;;;24.00;39.00;;;;;;5004637;28;20034;-43
2022/04/30 13:04:57;;;;;;;2.47;1.10;;;24.00;39.00;;;;;;5005124;28;20030;-43
2022/04/30 13:07:22;;;;;;;1.80;1.00;;;24.00;39.00;;;;;;5004609;28;20037;-43
2022/04/30 13:15:17;;;;;;;2.10;1.10;;;24.00;39.00;;;;;;5004798;28;20393;-43
2022/04/30 13:17:43;;;;;;;2.22;1.10;;;24.00;39.00;;;;;;5006113;28;20113;-43
2022/04/30 13:20:11;;;;;;;1.98;1.10;;;24.00;39.00;;;;;;5008655;28;20040;-43
2022/04/30 13:22:37;;;;;;;1.73;0.93;;;24.10;39.70;;;;;;5008153;28;20088;-43
2022/04/30 13:25:04;;;;;;;2.20;0.90;;;24.10;39.00;;;;;;5008447;28;20034;-43
2022/04/30 13:27:31;;;;;;;2.63;1.10;;;24.10;39.00;;;;;;5008385;28;20030;-43